Hauptseite
METAR-TAF:

METAR-TAF

Flughäfen :

Militärflugplatz Luxeuil-Saint Sauveur

Luxeuil-les-Bains, Frankreich

Breite: 47-47N, Länge: 006-21E, Höhe: 278 m

Beobachtung

Neuester Wetterbericht von vor 26 Minuten, um 03:00 UTC
Wind 5 kt aus Nordost
Temperatur 2°C
Luftfeuchtigkeit 87%
Luftdruck 1008 hPa
Sichtweite: 8000 m

METAR: LFSX 210300Z AUTO 05005KT 8000 ///TCU 02/M00 Q1008

Zeit: 04:26 (03:26 UTC)

Prognose

Neuester Wetterbericht von vor 7 Stunden und 26 Minuten, um 20:00 UTC
Gültige Prognose vom 20 um 21 UTC bis 21 um 21 UTC
Wind 15 kt aus Südost
Sichtweite: 9000 m
Zeitweise
vom 21 um 00 UTC bis 21 um 08 UTC
Sichtweite: 4500 m
Aufgelockert bewölkt in der Höhe von 1500 ft
Leichtregen, Schnee
Übergehend zu
vom 21 um 03 UTC bis 21 um 05 UTC
Wind 5 kt aus Ost

TAF: LFSX 202000Z 2021/2121 14015KT 9000 NSC TEMPO 2100/2108 4500 -RASN SCT015 BECMG 2103/2105 10005KT

Wetterbeobachtungen und Prognosen von mehr als 4000 Flughäfen (METAR und TAF Bericht).

Die verfügbaren Stationen werden durch gelbe und rote Markierungen auf der Karte dargestellt.

Führen Sie die Maus auf sie, um den Namen der Station zu sehen.

Darauf klicken, um die Beobachtung von Wetterbeobachtungen und Prognosen zu sehen.

Um die Karte zu ändern : klicken Sie auf den grünen Tasten mit einem schwarzen Kreuz Zum Vergrößern, auf den grünen Button mit einem Gedankenstrich zu verkleinern, oder auf die grünen Pfeile für benachbarte Karten.


METAR-TAF: